Mazagon R — EAII — position and weather

sailwx.info

Track history (hours):
 
Tides and Currents Weather Stations Pressure Air Temp Water Temp Dewpoint Dewpoint Depression Visibility Wind Speed Wind Dir Waves Ship Positions

Mazagon R

Last reported at 2018-May-06 20:31 UTC. Time now 2018-May-23 15:08 UTC.
Position S 04°56' E 011°28'.
Warning: this ship's position is 16 days out of date.

Length 34 m.

Type: Fishing. MMSI: 224300000.

Date/timePositionNaut miles runAvg speedWind from/ knotsBaromVisibWave heightAir tempDewpointWater temp
2018-May-06 20:31S 04°56' E 011°28'3 8.8
2018-May-06 20:09S 04°58' E 011°25'2 9.1
2018-May-06 19:55S 04°59' E 011°23'6 2.5
2018-May-06 17:35S 05°04' E 011°21'0 2.9
2018-May-06 17:27S 05°04' E 011°22'1 2.9
2018-May-06 17:00S 05°06' E 011°22'1 2.9
2018-May-06 16:29S 05°07' E 011°23'1 2.9
2018-May-06 16:00S 05°08' E 011°24'1 2.9
2018-May-06 15:30S 05°10' E 011°24'2 2.9
2018-May-06 14:59S 05°11' E 011°25'1 2.9
2018-May-06 14:30S 05°12' E 011°25'1 2.5
2018-May-06 13:59S 05°13' E 011°26'2 3.7
2018-May-06 13:30S 05°15' E 011°26'0 0.7
2018-May-06 13:00S 05°15' E 011°27'1 2.9
2018-May-06 12:29S 05°14' E 011°26'2 2.9
2018-May-06 11:58S 05°13' E 011°25'1 2.9
2018-May-06 11:30S 05°11' E 011°25'1 2.9
2018-May-06 11:00S 05°10' E 011°24'1 2.8
2018-May-06 10:30S 05°09' E 011°24'1 2.8
2018-May-06 10:00S 05°07' E 011°23'1 2.9
2018-May-06 09:30S 05°06' E 011°22'1 2.9
2018-May-06 09:00S 05°05' E 011°22'1 2.9
2018-May-06 08:30S 05°04' E 011°21'1 2.9
2018-May-06 08:00S 05°02' E 011°20'1 2.9
2018-May-06 07:30S 05°01' E 011°20'1 0.1
2018-May-06 00:28S 05°02' E 011°20'1 3.0
2018-May-06 00:00S 05°03' E 011°20'1 3.0
2018-May-05 23:30S 05°04' E 011°21'2 3.0
2018-May-05 22:59S 05°06' E 011°22'1 2.9
2018-May-05 22:30S 05°07' E 011°22'1 2.9
2018-May-05 22:00S 05°08' E 011°23'1 2.9
2018-May-05 21:30S 05°09' E 011°24'1 2.9
2018-May-05 21:00S 05°11' E 011°24'1 2.9
2018-May-05 20:30S 05°12' E 011°25'1 2.9
2018-May-05 19:59S 05°13' E 011°26'1 2.5
2018-May-05 19:29S 05°14' E 011°26'1 1.9
2018-May-05 19:00S 05°15' E 011°26'0 0.9
2018-May-05 18:29S 05°15' E 011°27'1 2.9
2018-May-05 18:00S 05°14' E 011°26'1 2.9
2018-May-05 17:30S 05°12' E 011°25'1 2.9
2018-May-05 17:00S 05°11' E 011°25'1 2.9
2018-May-05 16:30S 05°10' E 011°24'1 2.9
2018-May-05 16:00S 05°09' E 011°24'1 2.8
2018-May-05 15:30S 05°07' E 011°23'2 2.9
2018-May-05 14:52S 05°06' E 011°22'1 2.9
2018-May-05 14:28S 05°05' E 011°22'1 2.7
2018-May-05 14:00S 05°04' E 011°21'2 2.9
2018-May-05 13:18S 05°02' E 011°20'1 2.9
2018-May-05 12:57S 05°01' E 011°19'1 2.9
2018-May-05 12:28S 04°60' E 011°19'1 2.9
2018-May-05 12:00S 04°58' E 011°18'2 0.1
2018-May-04 22:23S 04°57' E 011°17'0 1.0
2018-May-04 21:53S 04°57' E 011°17'7 0.3
2018-May-03 23:26S 05°04' E 011°21'1 2.9
2018-May-03 22:59S 05°05' E 011°22'1 2.9
2018-May-03 22:29S 05°06' E 011°22'1 2.9
2018-May-03 22:00S 05°07' E 011°23'2 2.9
2018-May-03 21:28S 05°09' E 011°24'1 2.9
2018-May-03 21:00S 05°10' E 011°24'1 2.9
2018-May-03 20:30S 05°11' E 011°25'1 2.8
2018-May-03 19:59S 05°13' E 011°26'1 2.9
2018-May-03 19:30S 05°14' E 011°26'1 2.6
2018-May-03 19:00S 05°15' E 011°27'2 3.9
2018-May-03 18:29S 05°17' E 011°27'0 0.6
2018-May-03 18:00S 05°17' E 011°27'1 2.2
2018-May-03 17:29S 05°16' E 011°27'1 2.9
2018-May-03 17:00S 05°15' E 011°26'1 2.9
2018-May-03 16:29S 05°13' E 011°26'1 2.9
2018-May-03 15:59S 05°12' E 011°25'1 2.9
2018-May-03 15:30S 05°11' E 011°25'1 2.9
2018-May-03 15:00S 05°09' E 011°24'1 2.8
2018-May-03 14:30S 05°08' E 011°23'1 2.9
2018-May-03 14:00S 05°07' E 011°23'1 2.9
2018-May-03 13:30S 05°06' E 011°22'2 3.0
2018-May-03 12:59S 05°04' E 011°21'1 2.9
2018-May-03 12:30S 05°03' E 011°21'2 2.9
2018-May-03 11:57S 05°02' E 011°20'2 3.2
2018-May-03 11:15S 04°60' E 011°19'2 7.1
2018-May-03 11:00S 04°60' E 011°21'4 6.2
2018-May-03 10:25S 05°00' E 011°24'1 3.0
2018-May-03 09:57S 05°02' E 011°25'2 3.0
2018-May-03 09:26S 05°03' E 011°26'2 3.1
2018-May-03 08:49S 05°04' E 011°27'1 3.1
2018-May-03 08:27S 05°05' E 011°27'2 3.9
2018-May-03 08:00S 05°07' E 011°28'1 2.3
2018-May-03 07:27S 05°08' E 011°29'3 3.1
2018-May-03 06:33S 05°11' E 011°30'0 3.1
2018-May-03 06:29S 05°11' E 011°30'2 3.1
2018-May-03 05:59S 05°12' E 011°31'2 3.1
2018-May-03 05:28S 05°14' E 011°32'2 4.0
2018-May-03 05:00S 05°15' E 011°31'4 8.7
2018-May-03 04:30S 05°18' E 011°28'1 2.5
2018-May-03 04:00S 05°19' E 011°27'1 1.1
2018-May-03 03:28S 05°18' E 011°27'1 2.9
2018-May-03 03:00S 05°17' E 011°27'1 2.9
2018-May-03 02:29S 05°16' E 011°27'1 2.9
2018-May-03 01:59S 05°14' E 011°26'1 2.9
2018-May-03 01:30S 05°13' E 011°25'1 2.9
2018-May-03 01:00S 05°12' E 011°25'1 2.9
2018-May-03 00:30S 05°10' E 011°24'1 2.9
2018-May-03 00:00S 05°09' E 011°24'2 2.9
2018-May-02 23:29S 05°08' E 011°23'1 2.9
2018-May-02 23:00S 05°06' E 011°22'1 2.9
2018-May-02 22:30S 05°05' E 011°21'1 2.9
2018-May-02 22:00S 05°04' E 011°21'1 2.9
2018-May-02 21:30S 05°03' E 011°20'1 2.9
2018-May-02 21:00S 05°01' E 011°20'0 0.0
2018-May-02 00:58S 05°01' E 011°19'1 2.9
2018-May-02 00:31S 05°02' E 011°20'2 2.9
2018-May-01 23:58S 05°04' E 011°21'1 2.9
2018-May-01 23:31S 05°05' E 011°21'2 2.9
2018-May-01 22:59S 05°06' E 011°22'1 2.9
2018-May-01 22:30S 05°08' E 011°23'1 2.6
2018-May-01 22:00S 05°09' E 011°23'2 3.9
2018-May-01 21:30S 05°10' E 011°24'0 0.2
2018-May-01 20:59S 05°10' E 011°24'1 2.0
2018-May-01 20:29S 05°11' E 011°25'1 2.8
2018-May-01 19:59S 05°13' E 011°25'1 2.2
2018-May-01 19:28S 05°14' E 011°26'2 3.4
2018-May-01 19:00S 05°15' E 011°26'0 0.6
2018-May-01 18:30S 05°15' E 011°26'2 3.0
2018-May-01 17:59S 05°14' E 011°26'1 2.9
2018-May-01 17:30S 05°13' E 011°25'1 2.9
2018-May-01 17:00S 05°11' E 011°25'1 2.9
2018-May-01 16:30S 05°10' E 011°24'1 2.9
2018-May-01 16:00S 05°09' E 011°23'1 2.8
2018-May-01 15:30S 05°07' E 011°23'1 2.9
2018-May-01 15:01S 05°06' E 011°22'2 2.9
2018-May-01 14:24S 05°05' E 011°21'1 2.9
2018-May-01 14:00S 05°04' E 011°21'1 2.9
2018-May-01 13:30S 05°02' E 011°20'1 2.9
2018-May-01 13:00S 05°01' E 011°19'1 2.9
2018-May-01 12:30S 04°60' E 011°18'1 2.9
2018-May-01 12:00S 04°58' E 011°18'9 2.2
2018-May-01 07:59S 05°02' E 011°26'2 2.4
2018-May-01 07:12S 05°04' E 011°27'1 3.1
2018-May-01 07:00S 05°04' E 011°27'2 3.1
2018-May-01 06:30S 05°06' E 011°28'2 3.1
2018-May-01 06:00S 05°07' E 011°28'2 3.0
2018-May-01 05:29S 05°09' E 011°29'2 4.5
2018-May-01 05:00S 05°11' E 011°30'5 9.2
2018-May-01 04:30S 05°14' E 011°27'1 2.4
2018-May-01 04:00S 05°15' E 011°26'1 1.6
2018-May-01 03:30S 05°14' E 011°26'1 2.9
2018-May-01 03:00S 05°13' E 011°26'1 2.9
2018-May-01 02:30S 05°12' E 011°25'1 3.0
2018-May-01 02:00S 05°10' E 011°24'2 3.0
2018-May-01 01:30S 05°09' E 011°24'1 3.0
2018-May-01 01:00S 05°08' E 011°23'1 3.0
2018-May-01 00:30S 05°06' E 011°22'2 3.0
2018-May-01 00:00S 05°05' E 011°22'2 3.0
2018-Apr-30 23:22S 05°03' E 011°21'1 3.0
2018-Apr-30 22:59S 05°02' E 011°20'1 3.0
2018-Apr-30 22:29S 05°01' E 011°19'1 2.9
2018-Apr-30 22:00S 04°60' E 011°19'2 3.0
2018-Apr-30 21:30S 04°58' E 011°18'5 0.3
2018-Apr-30 04:38S 04°60' E 011°23'3 9.5
2018-Apr-30 04:21S 05°02' E 011°24'4 9.5
2018-Apr-30 03:57S 05°06' E 011°24'4 9.8
2018-Apr-30 03:30S 05°10' E 011°25'5 9.6
2018-Apr-30 02:58S 05°15' E 011°26'5 9.6
2018-Apr-30 02:30S 05°20' E 011°27'1 1.6
2018-Apr-30 01:59S 05°20' E 011°27'1 3.0
2018-Apr-30 01:30S 05°19' E 011°27'2 3.0
2018-Apr-30 01:00S 05°18' E 011°27'2 3.0
2018-Apr-30 00:29S 05°16' E 011°27'1 3.0
2018-Apr-30 00:00S 05°15' E 011°26'2 3.0
2018-Apr-29 23:30S 05°13' E 011°26'2 3.0
2018-Apr-29 22:59S 05°12' E 011°25'1 3.0
2018-Apr-29 22:31S 05°10' E 011°24'2 3.0
2018-Apr-29 22:00S 05°09' E 011°24'2 3.0
2018-Apr-29 21:29S 05°08' E 011°23'1 2.9
2018-Apr-29 21:00S 05°06' E 011°22'1 2.9
2018-Apr-29 20:29S 05°05' E 011°22'1 2.9
2018-Apr-29 20:00S 05°04' E 011°21'1 2.9
2018-Apr-29 19:30S 05°03' E 011°20'1 2.9
2018-Apr-29 19:00S 05°01' E 011°20'1 2.9
2018-Apr-29 18:30S 05°00' E 011°19'1 2.9
2018-Apr-29 18:00S 04°59' E 011°18'1 2.9
2018-Apr-29 17:30S 04°58' E 011°18'2 2.9
2018-Apr-29 16:59S 04°56' E 011°17'1 2.9
2018-Apr-29 16:30S 04°55' E 011°16'1 0.0
2018-Apr-28 15:43S 04°56' E 011°16'2 3.0
2018-Apr-28 15:12S 04°57' E 011°17'1 3.0
2018-Apr-28 15:00S 04°57' E 011°18'1 2.3
2018-Apr-28 14:30S 04°58' E 011°18'3 6.4
2018-Apr-28 13:59S 04°60' E 011°21'2 4.8
2018-Apr-28 13:28S 04°60' E 011°24'2 3.1
2018-Apr-28 12:43S 05°02' E 011°25'1 3.1
2018-Apr-28 12:27S 05°02' E 011°25'1 3.1
2018-Apr-28 12:00S 05°04' E 011°26'2 3.2
2018-Apr-28 11:30S 05°05' E 011°27'2 3.2
2018-Apr-28 10:59S 05°06' E 011°28'2 3.2
2018-Apr-28 10:30S 05°08' E 011°29'2 3.0
2018-Apr-28 09:59S 05°09' E 011°29'1 3.1
2018-Apr-28 09:30S 05°10' E 011°30'2 3.1
2018-Apr-28 09:00S 05°12' E 011°31'2 3.1
2018-Apr-28 08:29S 05°13' E 011°31'2 3.9
2018-Apr-28 07:59S 05°15' E 011°32'1 1.7
2018-Apr-28 07:29S 05°14' E 011°32'2 3.0
2018-Apr-28 07:00S 05°13' E 011°31'1 3.0
2018-Apr-28 06:30S 05°12' E 011°31'2 3.1
2018-Apr-28 06:00S 05°10' E 011°30'2 3.0
2018-Apr-28 05:30S 05°09' E 011°29'2 4.4
2018-Apr-28 05:00S 05°07' E 011°27'4 8.7
2018-Apr-28 04:30S 05°07' E 011°23'1 1.1
2018-Apr-28 04:00S 05°07' E 011°23'1 2.1
2018-Apr-28 03:30S 05°06' E 011°22'1 2.9
2018-Apr-28 03:00S 05°05' E 011°21'1 2.9
2018-Apr-28 02:30S 05°04' E 011°21'1 2.9
2018-Apr-28 02:00S 05°03' E 011°20'1 2.9
2018-Apr-28 01:29S 05°01' E 011°19'1 2.9
2018-Apr-28 01:00S 05°00' E 011°19'1 0.1
2018-Apr-27 15:11S 05°01' E 011°19'1 2.4
2018-Apr-27 14:58S 05°01' E 011°20'1 2.7
2018-Apr-27 14:29S 05°02' E 011°20'2 4.3
2018-Apr-27 13:59S 05°01' E 011°22'2 4.7
2018-Apr-27 13:30S 05°00' E 011°24'2 3.0
2018-Apr-27 12:49S 05°02' E 011°25'2 3.1
2018-Apr-27 12:18S 05°03' E 011°26'1 3.1
2018-Apr-27 12:00S 05°04' E 011°27'2 3.1
2018-Apr-27 11:30S 05°05' E 011°27'2 3.1
2018-Apr-27 11:00S 05°07' E 011°28'2 3.3
2018-Apr-27 10:30S 05°08' E 011°29'1 2.8
2018-Apr-27 10:00S 05°09' E 011°30'1 3.0
2018-Apr-27 09:30S 05°11' E 011°30'2 3.0
2018-Apr-27 09:00S 05°12' E 011°31'2 3.1
2018-Apr-27 08:30S 05°14' E 011°31'2 3.2
2018-Apr-27 08:00S 05°15' E 011°32'0 0.1
2018-Apr-27 07:30S 05°15' E 011°32'1 3.1
2018-Apr-27 07:01S 05°14' E 011°32'2 3.1
2018-Apr-27 06:29S 05°12' E 011°31'2 3.1
2018-Apr-27 05:58S 05°11' E 011°30'1 3.1
2018-Apr-27 05:30S 05°09' E 011°30'2 3.1
2018-Apr-27 05:00S 05°08' E 011°29'4 7.0
2018-Apr-27 04:28S 05°09' E 011°25'1 3.0
2018-Apr-27 04:00S 05°10' E 011°24'1 2.1
2018-Apr-27 03:30S 05°09' E 011°24'1 2.9
2018-Apr-27 03:00S 05°08' E 011°23'1 3.0
2018-Apr-27 02:31S 05°07' E 011°22'2 2.9
2018-Apr-27 01:59S 05°05' E 011°22'1 2.9
2018-Apr-27 01:30S 05°04' E 011°21'2 3.0
2018-Apr-27 00:58S 05°03' E 011°20'1 3.0
2018-Apr-27 00:30S 05°02' E 011°20'2 3.0
2018-Apr-27 00:00S 05°00' E 011°19'  
Track history (hours):
 
Tides and Currents Weather Stations Pressure Air Temp Water Temp Dewpoint Dewpoint Depression Visibility Wind Speed Wind Dir Waves Ship Positions

Mazagon R

Last reported at 2018-May-06 20:31 UTC. Time now 2018-May-23 15:08 UTC.
Position S 04°56' E 011°28'.
Warning: this ship's position is 16 days out of date.

Length 34 m.

Type: Fishing. MMSI: 224300000.

Date/timePositionNaut miles runAvg speedWind from/ knotsBaromVisibWave heightAir tempDewpointWater temp
2018-May-06 20:31S 04°56' E 011°28'3 8.8
2018-May-06 20:09S 04°58' E 011°25'2 9.1
2018-May-06 19:55S 04°59' E 011°23'6 2.5
2018-May-06 17:35S 05°04' E 011°21'0 2.9
2018-May-06 17:27S 05°04' E 011°22'1 2.9
2018-May-06 17:00S 05°06' E 011°22'1 2.9
2018-May-06 16:29S 05°07' E 011°23'1 2.9
2018-May-06 16:00S 05°08' E 011°24'1 2.9
2018-May-06 15:30S 05°10' E 011°24'2 2.9
2018-May-06 14:59S 05°11' E 011°25'1 2.9
2018-May-06 14:30S 05°12' E 011°25'1 2.5
2018-May-06 13:59S 05°13' E 011°26'2 3.7
2018-May-06 13:30S 05°15' E 011°26'0 0.7
2018-May-06 13:00S 05°15' E 011°27'1 2.9
2018-May-06 12:29S 05°14' E 011°26'2 2.9
2018-May-06 11:58S 05°13' E 011°25'1 2.9
2018-May-06 11:30S 05°11' E 011°25'1 2.9
2018-May-06 11:00S 05°10' E 011°24'1 2.8
2018-May-06 10:30S 05°09' E 011°24'1 2.8
2018-May-06 10:00S 05°07' E 011°23'1 2.9
2018-May-06 09:30S 05°06' E 011°22'1 2.9
2018-May-06 09:00S 05°05' E 011°22'1 2.9
2018-May-06 08:30S 05°04' E 011°21'1 2.9
2018-May-06 08:00S 05°02' E 011°20'1 2.9
2018-May-06 07:30S 05°01' E 011°20'1 0.1
2018-May-06 00:28S 05°02' E 011°20'1 3.0
2018-May-06 00:00S 05°03' E 011°20'1 3.0
2018-May-05 23:30S 05°04' E 011°21'2 3.0
2018-May-05 22:59S 05°06' E 011°22'1 2.9
2018-May-05 22:30S 05°07' E 011°22'1 2.9
2018-May-05 22:00S 05°08' E 011°23'1 2.9
2018-May-05 21:30S 05°09' E 011°24'1 2.9
2018-May-05 21:00S 05°11' E 011°24'1 2.9
2018-May-05 20:30S 05°12' E 011°25'1 2.9
2018-May-05 19:59S 05°13' E 011°26'1 2.5
2018-May-05 19:29S 05°14' E 011°26'1 1.9
2018-May-05 19:00S 05°15' E 011°26'0 0.9
2018-May-05 18:29S 05°15' E 011°27'1 2.9
2018-May-05 18:00S 05°14' E 011°26'1 2.9
2018-May-05 17:30S 05°12' E 011°25'1 2.9
2018-May-05 17:00S 05°11' E 011°25'1 2.9
2018-May-05 16:30S 05°10' E 011°24'1 2.9
2018-May-05 16:00S 05°09' E 011°24'1 2.8
2018-May-05 15:30S 05°07' E 011°23'2 2.9
2018-May-05 14:52S 05°06' E 011°22'1 2.9
2018-May-05 14:28S 05°05' E 011°22'1 2.7
2018-May-05 14:00S 05°04' E 011°21'2 2.9
2018-May-05 13:18S 05°02' E 011°20'1 2.9
2018-May-05 12:57S 05°01' E 011°19'1 2.9
2018-May-05 12:28S 04°60' E 011°19'1 2.9
2018-May-05 12:00S 04°58' E 011°18'2 0.1
2018-May-04 22:23S 04°57' E 011°17'0 1.0
2018-May-04 21:53S 04°57' E 011°17'7 0.3
2018-May-03 23:26S 05°04' E 011°21'1 2.9
2018-May-03 22:59S 05°05' E 011°22'1 2.9
2018-May-03 22:29S 05°06' E 011°22'1 2.9
2018-May-03 22:00S 05°07' E 011°23'2 2.9
2018-May-03 21:28S 05°09' E 011°24'1 2.9
2018-May-03 21:00S 05°10' E 011°24'1 2.9
2018-May-03 20:30S 05°11' E 011°25'1 2.8
2018-May-03 19:59S 05°13' E 011°26'1 2.9
2018-May-03 19:30S 05°14' E 011°26'1 2.6
2018-May-03 19:00S 05°15' E 011°27'2 3.9
2018-May-03 18:29S 05°17' E 011°27'0 0.6
2018-May-03 18:00S 05°17' E 011°27'1 2.2
2018-May-03 17:29S 05°16' E 011°27'1 2.9
2018-May-03 17:00S 05°15' E 011°26'1 2.9
2018-May-03 16:29S 05°13' E 011°26'1 2.9
2018-May-03 15:59S 05°12' E 011°25'1 2.9
2018-May-03 15:30S 05°11' E 011°25'1 2.9
2018-May-03 15:00S 05°09' E 011°24'1 2.8
2018-May-03 14:30S 05°08' E 011°23'1 2.9
2018-May-03 14:00S 05°07' E 011°23'1 2.9
2018-May-03 13:30S 05°06' E 011°22'2 3.0
2018-May-03 12:59S 05°04' E 011°21'1 2.9
2018-May-03 12:30S 05°03' E 011°21'2 2.9
2018-May-03 11:57S 05°02' E 011°20'2 3.2
2018-May-03 11:15S 04°60' E 011°19'2 7.1
2018-May-03 11:00S 04°60' E 011°21'4 6.2
2018-May-03 10:25S 05°00' E 011°24'1 3.0
2018-May-03 09:57S 05°02' E 011°25'2 3.0
2018-May-03 09:26S 05°03' E 011°26'2 3.1
2018-May-03 08:49S 05°04' E 011°27'1 3.1
2018-May-03 08:27S 05°05' E 011°27'2 3.9
2018-May-03 08:00S 05°07' E 011°28'1 2.3
2018-May-03 07:27S 05°08' E 011°29'3 3.1
2018-May-03 06:33S 05°11' E 011°30'0 3.1
2018-May-03 06:29S 05°11' E 011°30'2 3.1
2018-May-03 05:59S 05°12' E 011°31'2 3.1
2018-May-03 05:28S 05°14' E 011°32'2 4.0
2018-May-03 05:00S 05°15' E 011°31'4 8.7
2018-May-03 04:30S 05°18' E 011°28'1 2.5
2018-May-03 04:00S 05°19' E 011°27'1 1.1
2018-May-03 03:28S 05°18' E 011°27'1 2.9
2018-May-03 03:00S 05°17' E 011°27'1 2.9
2018-May-03 02:29S 05°16' E 011°27'1 2.9
2018-May-03 01:59S 05°14' E 011°26'1 2.9
2018-May-03 01:30S 05°13' E 011°25'1 2.9
2018-May-03 01:00S 05°12' E 011°25'1 2.9
2018-May-03 00:30S 05°10' E 011°24'1 2.9
2018-May-03 00:00S 05°09' E 011°24'2 2.9
2018-May-02 23:29S 05°08' E 011°23'1 2.9
2018-May-02 23:00S 05°06' E 011°22'1 2.9
2018-May-02 22:30S 05°05' E 011°21'1 2.9
2018-May-02 22:00S 05°04' E 011°21'1 2.9
2018-May-02 21:30S 05°03' E 011°20'1 2.9
2018-May-02 21:00S 05°01' E 011°20'0 0.0
2018-May-02 00:58S 05°01' E 011°19'1 2.9
2018-May-02 00:31S 05°02' E 011°20'2 2.9
2018-May-01 23:58S 05°04' E 011°21'1 2.9
2018-May-01 23:31S 05°05' E 011°21'2 2.9
2018-May-01 22:59S 05°06' E 011°22'1 2.9
2018-May-01 22:30S 05°08' E 011°23'1 2.6
2018-May-01 22:00S 05°09' E 011°23'2 3.9
2018-May-01 21:30S 05°10' E 011°24'0 0.2
2018-May-01 20:59S 05°10' E 011°24'1 2.0
2018-May-01 20:29S 05°11' E 011°25'1 2.8
2018-May-01 19:59S 05°13' E 011°25'1 2.2
2018-May-01 19:28S 05°14' E 011°26'2 3.4
2018-May-01 19:00S 05°15' E 011°26'0 0.6
2018-May-01 18:30S 05°15' E 011°26'2 3.0
2018-May-01 17:59S 05°14' E 011°26'1 2.9
2018-May-01 17:30S 05°13' E 011°25'1 2.9
2018-May-01 17:00S 05°11' E 011°25'1 2.9
2018-May-01 16:30S 05°10' E 011°24'1 2.9
2018-May-01 16:00S 05°09' E 011°23'1 2.8
2018-May-01 15:30S 05°07' E 011°23'1 2.9
2018-May-01 15:01S 05°06' E 011°22'2 2.9
2018-May-01 14:24S 05°05' E 011°21'1 2.9
2018-May-01 14:00S 05°04' E 011°21'1 2.9
2018-May-01 13:30S 05°02' E 011°20'1 2.9
2018-May-01 13:00S 05°01' E 011°19'1 2.9
2018-May-01 12:30S 04°60' E 011°18'1 2.9
2018-May-01 12:00S 04°58' E 011°18'9 2.2
2018-May-01 07:59S 05°02' E 011°26'2 2.4
2018-May-01 07:12S 05°04' E 011°27'1 3.1
2018-May-01 07:00S 05°04' E 011°27'2 3.1
2018-May-01 06:30S 05°06' E 011°28'2 3.1
2018-May-01 06:00S 05°07' E 011°28'2 3.0
2018-May-01 05:29S 05°09' E 011°29'2 4.5
2018-May-01 05:00S 05°11' E 011°30'5 9.2
2018-May-01 04:30S 05°14' E 011°27'1 2.4
2018-May-01 04:00S 05°15' E 011°26'1 1.6
2018-May-01 03:30S 05°14' E 011°26'1 2.9
2018-May-01 03:00S 05°13' E 011°26'1 2.9
2018-May-01 02:30S 05°12' E 011°25'1 3.0
2018-May-01 02:00S 05°10' E 011°24'2 3.0
2018-May-01 01:30S 05°09' E 011°24'1 3.0
2018-May-01 01:00S 05°08' E 011°23'1 3.0
2018-May-01 00:30S 05°06' E 011°22'2 3.0
2018-May-01 00:00S 05°05' E 011°22'2 3.0
2018-Apr-30 23:22S 05°03' E 011°21'1 3.0
2018-Apr-30 22:59S 05°02' E 011°20'1 3.0
2018-Apr-30 22:29S 05°01' E 011°19'1 2.9
2018-Apr-30 22:00S 04°60' E 011°19'2 3.0
2018-Apr-30 21:30S 04°58' E 011°18'5 0.3
2018-Apr-30 04:38S 04°60' E 011°23'3 9.5
2018-Apr-30 04:21S 05°02' E 011°24'4 9.5
2018-Apr-30 03:57S 05°06' E 011°24'4 9.8
2018-Apr-30 03:30S 05°10' E 011°25'5 9.6
2018-Apr-30 02:58S 05°15' E 011°26'5 9.6
2018-Apr-30 02:30S 05°20' E 011°27'1 1.6
2018-Apr-30 01:59S 05°20' E 011°27'1 3.0
2018-Apr-30 01:30S 05°19' E 011°27'2 3.0
2018-Apr-30 01:00S 05°18' E 011°27'2 3.0
2018-Apr-30 00:29S 05°16' E 011°27'1 3.0
2018-Apr-30 00:00S 05°15' E 011°26'2 3.0
2018-Apr-29 23:30S 05°13' E 011°26'2 3.0
2018-Apr-29 22:59S 05°12' E 011°25'1 3.0
2018-Apr-29 22:31S 05°10' E 011°24'2 3.0
2018-Apr-29 22:00S 05°09' E 011°24'2 3.0
2018-Apr-29 21:29S 05°08' E 011°23'1 2.9
2018-Apr-29 21:00S 05°06' E 011°22'1 2.9
2018-Apr-29 20:29S 05°05' E 011°22'1 2.9
2018-Apr-29 20:00S 05°04' E 011°21'1 2.9
2018-Apr-29 19:30S 05°03' E 011°20'1 2.9
2018-Apr-29 19:00S 05°01' E 011°20'1 2.9
2018-Apr-29 18:30S 05°00' E 011°19'1 2.9
2018-Apr-29 18:00S 04°59' E 011°18'1 2.9
2018-Apr-29 17:30S 04°58' E 011°18'2 2.9
2018-Apr-29 16:59S 04°56' E 011°17'1 2.9
2018-Apr-29 16:30S 04°55' E 011°16'1 0.0
2018-Apr-28 15:43S 04°56' E 011°16'2 3.0
2018-Apr-28 15:12S 04°57' E 011°17'1 3.0
2018-Apr-28 15:00S 04°57' E 011°18'1 2.3
2018-Apr-28 14:30S 04°58' E 011°18'3 6.4
2018-Apr-28 13:59S 04°60' E 011°21'2 4.8
2018-Apr-28 13:28S 04°60' E 011°24'2 3.1
2018-Apr-28 12:43S 05°02' E 011°25'1 3.1
2018-Apr-28 12:27S 05°02' E 011°25'1 3.1
2018-Apr-28 12:00S 05°04' E 011°26'2 3.2
2018-Apr-28 11:30S 05°05' E 011°27'2 3.2
2018-Apr-28 10:59S 05°06' E 011°28'2 3.2
2018-Apr-28 10:30S 05°08' E 011°29'2 3.0
2018-Apr-28 09:59S 05°09' E 011°29'1 3.1
2018-Apr-28 09:30S 05°10' E 011°30'2 3.1
2018-Apr-28 09:00S 05°12' E 011°31'2 3.1
2018-Apr-28 08:29S 05°13' E 011°31'2 3.9
2018-Apr-28 07:59S 05°15' E 011°32'1 1.7
2018-Apr-28 07:29S 05°14' E 011°32'2 3.0
2018-Apr-28 07:00S 05°13' E 011°31'1 3.0
2018-Apr-28 06:30S 05°12' E 011°31'2 3.1
2018-Apr-28 06:00S 05°10' E 011°30'2 3.0
2018-Apr-28 05:30S 05°09' E 011°29'2 4.4
2018-Apr-28 05:00S 05°07' E 011°27'4 8.7
2018-Apr-28 04:30S 05°07' E 011°23'1 1.1
2018-Apr-28 04:00S 05°07' E 011°23'1 2.1
2018-Apr-28 03:30S 05°06' E 011°22'1 2.9
2018-Apr-28 03:00S 05°05' E 011°21'1 2.9
2018-Apr-28 02:30S 05°04' E 011°21'1 2.9
2018-Apr-28 02:00S 05°03' E 011°20'1 2.9
2018-Apr-28 01:29S 05°01' E 011°19'1 2.9
2018-Apr-28 01:00S 05°00' E 011°19'1 0.1
2018-Apr-27 15:11S 05°01' E 011°19'1 2.4
2018-Apr-27 14:58S 05°01' E 011°20'1 2.7
2018-Apr-27 14:29S 05°02' E 011°20'2 4.3
2018-Apr-27 13:59S 05°01' E 011°22'2 4.7
2018-Apr-27 13:30S 05°00' E 011°24'2 3.0
2018-Apr-27 12:49S 05°02' E 011°25'2 3.1
2018-Apr-27 12:18S 05°03' E 011°26'1 3.1
2018-Apr-27 12:00S 05°04' E 011°27'2 3.1
2018-Apr-27 11:30S 05°05' E 011°27'2 3.1
2018-Apr-27 11:00S 05°07' E 011°28'2 3.3
2018-Apr-27 10:30S 05°08' E 011°29'1 2.8
2018-Apr-27 10:00S 05°09' E 011°30'1 3.0
2018-Apr-27 09:30S 05°11' E 011°30'2 3.0
2018-Apr-27 09:00S 05°12' E 011°31'2 3.1
2018-Apr-27 08:30S 05°14' E 011°31'2 3.2
2018-Apr-27 08:00S 05°15' E 011°32'0 0.1
2018-Apr-27 07:30S 05°15' E 011°32'1 3.1
2018-Apr-27 07:01S 05°14' E 011°32'2 3.1
2018-Apr-27 06:29S 05°12' E 011°31'2 3.1
2018-Apr-27 05:58S 05°11' E 011°30'1 3.1
2018-Apr-27 05:30S 05°09' E 011°30'2 3.1
2018-Apr-27 05:00S 05°08' E 011°29'4 7.0
2018-Apr-27 04:28S 05°09' E 011°25'1 3.0
2018-Apr-27 04:00S 05°10' E 011°24'1 2.1
2018-Apr-27 03:30S 05°09' E 011°24'1 2.9
2018-Apr-27 03:00S 05°08' E 011°23'1 3.0
2018-Apr-27 02:31S 05°07' E 011°22'2 2.9
2018-Apr-27 01:59S 05°05' E 011°22'1 2.9
2018-Apr-27 01:30S 05°04' E 011°21'2 3.0
2018-Apr-27 00:58S 05°03' E 011°20'1 3.0
2018-Apr-27 00:30S 05°02' E 011°20'2 3.0
2018-Apr-27 00:00S 05°00' E 011°19'  

Dump ship's entire track history